Terminal Aerodrome Forecast
Issued by NWS

Home | Current Version | Previous Version | Text Only | Print | Product List | Glossary On
Versions: 1 2 3 4 5 6 7 8 9 10 11 12 13 14 15 16 17 18 19 20
000
FTUS43 KBIS 270500
TAFDIK
TAF
KDIK 270538Z 2706/2806 14007KT P6SM SCT005 SCT020 SCT050
      TEMPO 2706/2709 SCT005 BKN020 OVC050
     FM270900 14009KT P6SM SCT005 BKN015 OVC035
      TEMPO 2709/2713 6SM -SN BR BKN005 OVC015
     FM271300 14011KT 1SM -SN BR OVC008
     FM271800 15015KT 6SM -FZRASG BR OVC010
     FM272100 17012KT P6SM OVC015
     FM280200 19010KT P6SM SCT020 BKN070=

USA.gov is the U.S. government's official web portal to all federal, state and local government web resources and services.